createdAt,value
2019-04-14T00:01:59.281Z,68.38
2019-04-14T00:04:48.730Z,67.30
2019-04-14T00:08:06.886Z,68.49
2019-04-14T00:10:46.450Z,67.90
2019-04-14T00:13:23.910Z,66.71
2019-04-14T00:16:01.642Z,67.22
2019-04-14T00:18:38.974Z,68.42
2019-04-14T00:21:15.687Z,68.14
2019-04-14T00:23:54.382Z,67.38
2019-04-14T00:26:33.621Z,67.10
2019-04-14T00:29:10.906Z,67.44
2019-04-14T00:31:50.715Z,67.08
2019-04-14T00:34:44.190Z,67.53
2019-04-14T00:37:31.495Z,68.31
2019-04-14T00:40:31.579Z,67.99
2019-04-14T00:43:26.798Z,67.19
2019-04-14T00:46:10.017Z,67.71
2019-04-14T00:48:49.646Z,68.10
2019-04-14T00:51:27.147Z,65.69
2019-04-14T00:54:04.388Z,65.47
2019-04-14T00:56:41.632Z,64.43
2019-04-14T00:59:20.080Z,65.59
2019-04-14T01:01:59.090Z,63.77
2019-04-14T01:04:38.224Z,62.52
2019-04-14T01:07:15.626Z,61.23
2019-04-14T01:09:55.370Z,61.27
2019-04-14T01:12:32.585Z,61.57
2019-04-14T01:15:11.507Z,60.74
2019-04-14T01:17:48.834Z,59.28
2019-04-14T01:20:27.501Z,62.51
2019-04-14T01:23:04.762Z,65.09
2019-04-14T01:25:41.730Z,63.60
2019-04-14T01:28:20.110Z,62.79
2019-04-14T01:30:59.027Z,60.32
2019-04-14T01:33:36.466Z,58.76
2019-04-14T01:36:14.768Z,59.68
2019-04-14T01:38:51.966Z,58.53
2019-04-14T01:41:30.508Z,58.95
2019-04-14T01:44:07.760Z,57.98
2019-04-14T01:46:45.596Z,56.58
2019-04-14T01:49:22.845Z,55.99
2019-04-14T01:52:19.071Z,55.03
2019-04-14T01:55:13.959Z,53.84
2019-04-14T01:58:03.410Z,54.40
2019-04-14T02:01:06.164Z,53.56
2019-04-14T02:03:45.459Z,53.94
2019-04-14T02:06:24.446Z,54.25
2019-04-14T02:09:01.304Z,53.08
2019-04-14T02:11:40.682Z,52.31
2019-04-14T02:14:21.186Z,52.08
2019-04-14T02:17:02.497Z,50.89
2019-04-14T02:19:39.297Z,48.69
2019-04-14T02:22:18.131Z,49.57
2019-04-14T02:24:57.088Z,53.05
2019-04-14T02:27:34.357Z,55.32
2019-04-14T02:30:17.392Z,54.61
2019-04-14T02:38:40.925Z,57.38
2019-04-14T02:41:27.026Z,56.08
2019-04-14T02:43:57.975Z,54.47
2019-04-14T02:46:38.308Z,55.49
2019-04-14T02:49:12.804Z,57.60
2019-04-14T02:51:53.358Z,56.50
2019-04-14T02:54:36.061Z,57.50
2019-04-14T02:57:15.093Z,57.14
2019-04-14T02:59:56.251Z,57.52
2019-04-14T03:02:30.323Z,59.25
2019-04-14T03:05:01.950Z,55.32
2019-04-14T03:07:46.248Z,55.04
2019-04-14T03:10:27.637Z,53.52
2019-04-14T03:13:05.520Z,55.67
2019-04-14T03:15:47.877Z,54.22
2019-04-14T03:18:41.051Z,53.55
2019-04-14T03:21:34.596Z,57.30
2019-04-14T03:24:31.765Z,57.75
2019-04-14T03:27:22.870Z,57.87
2019-04-14T03:30:46.003Z,55.87
2019-04-14T03:33:18.347Z,59.82
2019-04-14T03:38:20.559Z,56.67
2019-04-14T03:40:58.649Z,54.40
2019-04-14T03:43:30.292Z,53.40
2019-04-14T03:49:07.434Z,51.21
2019-04-14T03:51:37.073Z,53.63
2019-04-14T03:54:03.126Z,53.14
2019-04-14T03:57:04.038Z,52.14
2019-04-14T03:59:43.742Z,49.96
2019-04-14T04:02:22.534Z,47.74
2019-04-14T04:04:59.931Z,47.35
2019-04-14T04:07:37.312Z,49.76
2019-04-14T04:10:19.132Z,44.75
2019-04-14T04:12:57.606Z,45.72
2019-04-14T04:15:36.486Z,46.07
2019-04-14T04:18:24.182Z,49.85
2019-04-14T04:21:23.282Z,49.11
2019-04-14T04:24:13.373Z,45.57
2019-04-14T04:27:11.813Z,46.98
2019-04-14T04:30:10.306Z,47.52
2019-04-14T04:33:15.574Z,47.54
2019-04-14T04:35:58.406Z,44.72
2019-04-14T04:38:51.401Z,43.49
2019-04-14T04:41:29.620Z,43.94
2019-04-14T04:44:07.204Z,42.34
2019-04-14T04:46:45.969Z,44.47
2019-04-14T04:49:27.421Z,44.39
2019-04-14T04:52:03.979Z,43.11
2019-04-14T04:54:41.323Z,40.06
2019-04-14T04:57:18.386Z,46.64
2019-04-14T04:59:56.157Z,42.16
2019-04-14T05:02:33.262Z,42.63
2019-04-14T05:05:28.216Z,40.90
2019-04-14T05:08:05.202Z,46.88
2019-04-14T05:10:48.190Z,44.00
2019-04-14T05:13:29.683Z,41.61
2019-04-14T05:16:08.503Z,41.61
2019-04-14T05:18:46.348Z,41.16
2019-04-14T05:21:23.970Z,40.64
2019-04-14T05:24:00.881Z,40.79
2019-04-14T05:26:42.317Z,38.26
2019-04-14T05:29:20.999Z,38.26
2019-04-14T05:31:58.340Z,41.97
2019-04-14T05:34:36.699Z,41.97
2019-04-14T05:37:14.499Z,43.30
2019-04-14T05:39:52.722Z,43.90
2019-04-14T05:42:31.903Z,46.50
2019-04-14T05:45:09.049Z,44.81
2019-04-14T05:47:46.276Z,46.02
2019-04-14T05:50:24.911Z,47.26
2019-04-14T05:53:04.361Z,48.46
2019-04-14T05:55:43.755Z,46.98
2019-04-14T05:58:21.361Z,48.72
2019-04-14T06:00:58.752Z,47.30
2019-04-14T06:03:36.498Z,47.60
2019-04-14T06:06:13.250Z,47.54
2019-04-14T06:08:49.553Z,49.00
2019-04-14T06:11:26.691Z,48.74
2019-04-14T06:14:04.470Z,49.37
2019-04-14T06:16:42.321Z,48.44
2019-04-14T06:19:22.008Z,49.38
2019-04-14T06:21:59.531Z,49.85
2019-04-14T06:24:38.059Z,47.13
2019-04-14T06:27:14.956Z,46.68
2019-04-14T06:29:54.358Z,48.30
2019-04-14T06:32:41.699Z,46.56
2019-04-14T06:35:39.829Z,48.95
2019-04-14T06:38:23.592Z,46.73
2019-04-14T06:41:04.310Z,45.90
2019-04-14T06:43:48.680Z,46.47
2019-04-14T06:46:20.614Z,48.36
2019-04-14T06:48:57.437Z,47.18
2019-04-14T06:51:34.539Z,43.94
2019-04-14T06:54:12.082Z,44.52
2019-04-14T06:56:50.185Z,47.12
2019-04-14T06:59:26.943Z,45.51
2019-04-14T07:02:04.310Z,47.48
2019-04-14T07:04:41.255Z,47.03
2019-04-14T07:07:18.488Z,47.96
2019-04-14T07:09:55.341Z,46.18
2019-04-14T07:12:32.545Z,46.98
2019-04-14T07:15:10.269Z,47.43
2019-04-14T07:17:47.677Z,47.25
2019-04-14T07:20:24.721Z,45.47
2019-04-14T07:23:01.940Z,51.58
2019-04-14T07:25:39.451Z,50.85
2019-04-14T07:28:18.823Z,51.67
2019-04-14T07:31:13.986Z,52.46
2019-04-14T07:34:08.457Z,52.08
2019-04-14T07:37:14.096Z,51.25
2019-04-14T07:39:58.109Z,51.29
2019-04-14T07:42:53.460Z,46.27
2019-04-14T07:45:47.458Z,46.18
2019-04-14T07:48:30.481Z,48.72
2019-04-14T07:51:25.114Z,44.39
2019-04-14T07:54:23.827Z,48.87
2019-04-14T07:57:25.731Z,49.13
2019-04-14T08:00:12.278Z,49.95
2019-04-14T08:03:09.203Z,49.06
2019-04-14T08:05:46.373Z,47.99
2019-04-14T08:08:23.573Z,46.69
2019-04-14T08:11:01.562Z,46.53
2019-04-14T08:13:39.589Z,46.04
2019-04-14T08:16:17.307Z,45.25
2019-04-14T08:18:54.384Z,45.90
2019-04-14T08:21:31.692Z,41.67
2019-04-14T08:24:08.995Z,44.30
2019-04-14T08:26:46.122Z,44.41
2019-04-14T08:29:24.252Z,44.49
2019-04-14T08:32:03.278Z,48.00
2019-04-14T08:34:40.349Z,48.19
2019-04-14T08:37:17.615Z,46.85
2019-04-14T08:39:55.100Z,46.74
2019-04-14T08:42:50.157Z,45.49
2019-04-14T08:45:44.621Z,47.07
2019-04-14T08:48:46.617Z,50.42
2019-04-14T08:51:35.628Z,49.97
2019-04-14T08:54:49.269Z,48.52
2019-04-14T08:57:32.094Z,49.43
2019-04-14T09:00:24.654Z,48.45
2019-04-14T09:03:20.047Z,48.85
2019-04-14T09:06:07.022Z,48.93
2019-04-14T09:09:12.151Z,51.45
2019-04-14T09:12:14.582Z,51.58
2019-04-14T09:14:40.592Z,52.90
2019-04-14T09:17:19.076Z,52.39
2019-04-14T09:19:57.915Z,52.24
2019-04-14T09:22:34.904Z,51.29
2019-04-14T09:25:12.192Z,54.48
2019-04-14T09:27:49.689Z,55.30
2019-04-14T09:30:26.942Z,53.79
2019-04-14T09:33:05.402Z,52.92
2019-04-14T09:35:42.370Z,53.56
2019-04-14T09:38:20.074Z,55.35
2019-04-14T09:40:58.153Z,57.53
2019-04-14T09:43:35.272Z,57.20
2019-04-14T09:46:12.657Z,58.06
2019-04-14T09:48:53.064Z,58.33
2019-04-14T09:51:29.775Z,60.13
2019-04-14T09:54:06.932Z,59.25
2019-04-14T09:56:46.529Z,58.85
2019-04-14T09:59:24.232Z,57.60
2019-04-14T10:02:02.863Z,59.07
2019-04-14T10:04:40.422Z,56.59
2019-04-14T10:07:18.228Z,58.82
2019-04-14T10:09:56.207Z,58.22
2019-04-14T10:12:35.373Z,56.21
2019-04-14T10:15:12.491Z,56.73
2019-04-14T10:17:49.682Z,56.47
2019-04-14T10:20:29.027Z,57.51
2019-04-14T10:23:06.077Z,55.96
2019-04-14T10:25:42.581Z,54.66
2019-04-14T10:28:19.483Z,54.54
2019-04-14T10:30:57.938Z,54.99
2019-04-14T10:33:35.143Z,56.97
2019-04-14T10:36:13.420Z,56.62
2019-04-14T10:38:50.856Z,58.08
2019-04-14T10:41:27.980Z,58.34
2019-04-14T10:44:05.285Z,58.69
2019-04-14T10:46:42.456Z,59.21
2019-04-14T11:11:45.268Z,60.00
2019-04-14T11:14:23.696Z,61.79
2019-04-14T11:17:00.635Z,61.08
2019-04-14T11:19:37.953Z,61.58
2019-04-14T11:22:15.623Z,62.66
2019-04-14T11:24:52.536Z,63.26
2019-04-14T11:27:30.141Z,63.08
2019-04-14T11:30:09.935Z,62.74
2019-04-14T11:33:15.073Z,61.83
2019-04-14T11:36:10.112Z,63.51
2019-04-14T11:38:53.504Z,62.24
2019-04-14T11:45:57.611Z,63.54
2019-04-14T11:48:38.528Z,62.69
2019-04-14T11:51:21.047Z,62.48
2019-04-14T12:50:19.286Z,69.47
2019-04-14T12:52:57.517Z,70.05
2019-04-14T12:55:34.466Z,70.08
2019-04-14T12:58:12.285Z,70.10
2019-04-14T13:00:53.542Z,69.53
2019-04-14T13:03:31.502Z,69.62
2019-04-14T13:06:08.974Z,69.45
2019-04-14T13:08:46.428Z,70.29
2019-04-14T13:11:24.572Z,70.50
2019-04-14T13:14:01.821Z,70.89
2019-04-14T13:16:39.317Z,70.59
2019-04-14T13:19:16.806Z,71.55
2019-04-14T13:21:54.721Z,70.97
2019-04-14T13:24:32.698Z,70.73
2019-04-14T13:27:09.914Z,69.99
2019-04-14T13:29:47.307Z,69.35
2019-04-14T13:32:35.416Z,69.21
2019-04-14T13:35:03.943Z,69.54
2019-04-14T13:37:40.658Z,68.67
2019-04-14T13:40:17.576Z,68.87
2019-04-14T13:42:55.775Z,68.33
2019-04-14T13:45:32.696Z,68.65
2019-04-14T13:48:10.096Z,68.97
2019-04-14T13:50:47.081Z,68.08
2019-04-14T13:53:24.861Z,68.26
2019-04-14T13:56:03.073Z,67.63
2019-04-14T13:58:40.943Z,68.23
2019-04-14T14:01:17.996Z,67.27
2019-04-14T14:03:56.152Z,65.07
2019-04-14T14:06:33.095Z,65.06
2019-04-14T14:09:13.940Z,66.92
2019-04-14T14:12:25.135Z,67.37
2019-04-14T14:15:21.356Z,66.69
2019-04-14T14:18:26.758Z,66.11
2019-04-14T14:21:22.073Z,65.12
2019-04-14T14:24:11.624Z,67.45
2019-04-14T14:26:52.190Z,68.23
2019-04-14T14:29:29.198Z,67.83
2019-04-14T14:32:07.850Z,68.93
2019-04-14T14:34:44.261Z,69.12
2019-04-14T14:37:21.966Z,69.17
2019-04-14T14:39:58.999Z,69.92
2019-04-14T14:42:36.568Z,69.90
2019-04-14T14:45:24.071Z,69.40
2019-04-14T14:48:22.183Z,69.33
2019-04-14T14:51:07.651Z,69.24
2019-04-14T14:53:45.391Z,70.07
2019-04-14T14:56:22.314Z,70.49
2019-04-14T14:59:00.578Z,70.09
2019-04-14T15:01:37.833Z,70.27
2019-04-14T15:04:15.550Z,70.24
2019-04-14T15:06:52.444Z,69.15
2019-04-14T15:09:30.954Z,69.56
2019-04-14T15:12:08.198Z,69.80
2019-04-14T15:14:45.372Z,69.16
2019-04-14T15:17:22.312Z,68.85
2019-04-14T15:20:00.238Z,69.41
2019-04-14T15:22:37.764Z,69.87
2019-04-14T15:25:15.160Z,69.82
2019-04-14T15:27:54.751Z,68.71
2019-04-14T15:30:34.323Z,67.88
2019-04-14T15:33:11.687Z,68.29
2019-04-14T15:35:48.818Z,68.27
2019-04-14T15:38:25.936Z,67.73
2019-04-14T15:41:03.436Z,66.89
2019-04-14T15:43:40.677Z,67.42
2019-04-14T15:46:18.210Z,68.76
2019-04-14T15:48:55.504Z,68.65
2019-04-14T15:51:33.808Z,70.58
2019-04-14T15:54:10.857Z,71.00
2019-04-14T15:57:05.573Z,71.58
2019-04-14T15:59:59.950Z,71.53
2019-04-14T16:02:46.942Z,71.23
2019-04-14T16:05:47.630Z,71.11
2019-04-14T16:08:38.102Z,70.14
2019-04-14T16:11:30.378Z,69.58
2019-04-14T16:14:31.836Z,69.23
2019-04-14T16:17:25.385Z,69.50
2019-04-14T16:20:07.670Z,70.41
2019-04-14T16:22:44.911Z,69.67
2019-04-14T16:25:23.666Z,70.22
2019-04-14T16:28:13.388Z,70.79
2019-04-14T16:31:06.904Z,70.26
2019-04-14T16:34:21.270Z,70.62
2019-04-14T16:36:58.701Z,70.05
2019-04-14T16:39:35.683Z,71.45
2019-04-14T16:42:13.713Z,70.54
2019-04-14T16:44:50.852Z,70.24
2019-04-14T16:47:28.701Z,69.65
2019-04-14T16:50:05.896Z,69.41
2019-04-14T16:53:03.409Z,68.84
2019-04-14T16:55:47.766Z,68.26
2019-04-14T16:58:38.511Z,69.77
2019-04-14T17:01:23.336Z,70.71
2019-04-14T17:04:00.975Z,70.73
2019-04-14T17:06:39.319Z,70.55
2019-04-14T17:09:17.941Z,69.95
2019-04-14T17:11:55.477Z,69.74
2019-04-14T17:14:38.378Z,69.18
2019-04-14T17:17:26.959Z,69.62
2019-04-14T17:20:23.494Z,68.80
2019-04-14T17:23:13.847Z,70.87
2019-04-14T17:26:05.121Z,70.69
2019-04-14T17:29:13.152Z,69.76
2019-04-14T17:32:12.266Z,71.34
2019-04-14T17:34:55.875Z,72.28
2019-04-14T17:38:03.671Z,72.14
2019-04-14T17:40:50.148Z,71.77
2019-04-14T17:43:42.102Z,73.28
2019-04-14T17:46:49.647Z,73.59
2019-04-14T17:49:42.956Z,73.98
2019-04-14T17:52:37.529Z,74.50
2019-04-14T17:55:24.723Z,74.03
2019-04-14T17:58:15.940Z,73.61
2019-04-14T18:01:24.001Z,73.97
2019-04-14T18:04:20.891Z,73.25
2019-04-14T18:07:07.779Z,72.98
2019-04-14T18:10:09.478Z,73.48
2019-04-14T18:13:05.083Z,73.62
2019-04-14T18:15:53.560Z,73.66
2019-04-14T18:18:42.442Z,73.97
2019-04-14T18:21:19.857Z,74.16
2019-04-14T18:23:57.316Z,73.01
2019-04-14T18:26:34.752Z,73.52
2019-04-14T18:29:50.740Z,73.08
2019-04-14T18:32:42.183Z,72.19
2019-04-14T18:35:31.149Z,71.58
2019-04-14T18:38:36.731Z,72.13
2019-04-14T18:41:33.874Z,73.70
2019-04-14T18:44:25.956Z,73.30
2019-04-14T18:47:11.174Z,72.76
2019-04-14T18:50:22.008Z,73.43
2019-04-14T18:53:06.146Z,73.96
2019-04-14T18:56:02.399Z,73.71
2019-04-14T18:58:57.977Z,73.88
2019-04-14T19:01:39.477Z,75.30
2019-04-14T19:04:17.392Z,75.04
2019-04-14T19:06:54.831Z,75.13
2019-04-14T19:09:35.441Z,75.53
2019-04-14T19:12:45.962Z,75.88
2019-04-14T19:15:38.814Z,75.22
2019-04-14T19:18:40.158Z,74.40
2019-04-14T19:21:20.236Z,74.95
2019-04-14T19:23:57.598Z,75.26
2019-04-14T19:26:36.824Z,75.51
2019-04-14T19:29:14.393Z,75.76
2019-04-14T19:31:51.903Z,76.17
2019-04-14T19:34:29.284Z,76.39
2019-04-14T19:37:07.237Z,75.32
2019-04-14T19:39:45.776Z,74.99
2019-04-14T19:42:23.852Z,75.21
2019-04-14T19:45:01.186Z,75.92
2019-04-14T19:47:39.625Z,75.55
2019-04-14T19:50:16.547Z,75.15
2019-04-14T19:52:53.983Z,75.60
2019-04-14T19:55:31.302Z,74.80
2019-04-14T19:58:09.923Z,74.97
2019-04-14T20:00:48.192Z,74.48
2019-04-14T20:03:25.952Z,74.94
2019-04-14T20:06:03.008Z,75.61
2019-04-14T20:08:40.591Z,75.94
2019-04-14T20:11:18.409Z,74.54
2019-04-14T20:13:56.099Z,73.53
2019-04-14T20:16:42.710Z,73.09
2019-04-14T20:19:39.542Z,75.46
2019-04-14T20:22:22.407Z,74.98
2019-04-14T20:25:33.532Z,74.49
2019-04-14T20:28:16.901Z,74.71
2019-04-14T20:31:09.695Z,76.58
2019-04-14T20:33:47.686Z,75.76
2019-04-14T20:36:24.985Z,75.57
2019-04-14T20:39:03.060Z,75.98
2019-04-14T20:41:43.074Z,76.48
2019-04-14T20:44:20.095Z,76.53
2019-04-14T20:46:58.531Z,75.58
2019-04-14T20:49:36.169Z,76.04
2019-04-14T20:52:13.799Z,75.75
2019-04-14T20:54:50.879Z,75.50
2019-04-14T20:57:27.986Z,75.00
2019-04-14T21:00:05.731Z,75.18
2019-04-14T21:03:09.447Z,76.25
2019-04-14T21:06:10.974Z,76.56
2019-04-14T21:09:04.170Z,75.79
2019-04-14T21:12:01.343Z,75.69
2019-04-14T21:15:07.111Z,76.65
2019-04-14T21:18:03.031Z,76.15
2019-04-14T21:20:49.214Z,75.84
2019-04-14T21:23:43.492Z,75.32
2019-04-14T21:26:34.022Z,76.56
2019-04-14T21:29:16.731Z,76.03
2019-04-14T21:31:56.821Z,75.52
2019-04-14T21:34:56.916Z,75.97
2019-04-14T21:37:51.734Z,76.41
2019-04-14T21:40:48.224Z,75.63
2019-04-14T21:43:25.467Z,76.08
2019-04-14T21:46:03.731Z,76.20
2019-04-14T21:48:41.454Z,76.26
2019-04-14T21:51:18.755Z,76.08
2019-04-14T21:53:55.959Z,76.11
2019-04-14T21:56:35.318Z,76.44
2019-04-14T21:59:19.259Z,76.90
2019-04-14T22:02:34.162Z,75.85
2019-04-14T22:05:23.009Z,75.83
2019-04-14T22:08:10.516Z,76.05
2019-04-14T22:11:00.398Z,76.15
2019-04-14T22:13:38.420Z,75.86
2019-04-14T22:16:16.208Z,75.68
2019-04-14T22:18:53.526Z,75.49
2019-04-14T22:21:31.736Z,75.75
2019-04-14T22:24:08.851Z,75.56
2019-04-14T22:26:46.584Z,75.42
2019-04-14T22:29:23.799Z,76.28
2019-04-14T22:32:01.165Z,77.03
2019-04-14T22:34:38.785Z,76.00
2019-04-14T22:37:15.997Z,74.73
2019-04-14T22:39:52.696Z,74.84
2019-04-14T22:42:29.902Z,76.01
2019-04-14T22:45:08.081Z,76.27
2019-04-14T22:47:46.423Z,75.38
2019-04-14T22:50:24.133Z,74.60
2019-04-14T22:53:02.435Z,75.46
2019-04-14T22:55:39.616Z,76.78
2019-04-14T22:58:16.074Z,75.59
2019-04-14T23:00:57.213Z,75.09
2019-04-14T23:03:55.104Z,75.49
2019-04-14T23:06:51.639Z,76.87
2019-04-14T23:09:33.072Z,75.67
2019-04-14T23:12:37.834Z,75.09
2019-04-14T23:15:26.670Z,75.46
2019-04-14T23:18:12.502Z,76.98
2019-04-14T23:21:26.185Z,76.00
2019-04-14T23:24:23.802Z,74.87
2019-04-14T23:27:01.605Z,75.09
2019-04-14T23:29:39.436Z,75.93
2019-04-14T23:32:17.738Z,74.86
2019-04-14T23:34:54.581Z,74.29
2019-04-14T23:37:32.370Z,75.11
2019-04-14T23:40:10.128Z,76.04
2019-04-14T23:42:47.268Z,75.32
2019-04-14T23:45:25.399Z,74.61
2019-04-14T23:48:03.587Z,74.11
2019-04-14T23:50:41.977Z,74.26
2019-04-14T23:53:19.116Z,74.90
2019-04-14T23:55:56.232Z,73.58
2019-04-14T23:58:33.787Z,73.64
